Askew, Mississippi
Current Conditions -  °F | °C
As of 10:15 PM on Friday 19 Dec 2014 (Local Time) from KUTA Reporting Station
Broken Clouds Broken Clouds  
Wind Chill: 38°   Ceiling: 7500
Heat Index: 41°   Visibility: 10mi
Dew Point: 36°   Wind: 5mph
Humidity: 81%   Direction: 20°NNE
Pressure: 30.25"   Gusts: NA
Location:  34.441°N, 90.1719°W
Report Text: KUTA 200415Z AUTO 02004KT 10SM BKN075 05/02 A3025 RMK AO2
Loading
Personal Weather Stations






























Interactive Weather Map New forecast layout! Learn more

10-Day Weather Forecast

Advertisements
Track Severe Weather on mobile